VTSK

Details ICAO VTSK (PAN)
Name Pattani
Region Thailand
Timezone Asia/Bangkok (UTC+7.0)
Plans Departing 0
Arriving 3
Stats Elevation 8 ft / 2 m (AMSL)
Location 6.785457° 101.153569°
Runways 1
Magnetic Variation 0.205° W
Sunrise 2018-05-21 22:59:47 UTC / 2018-05-22 05:59:47 Local
Sunset 2018-05-22 11:27:08 UTC / 2018-05-22 18:27:08 Local
Advertisement - Login to hide

Runways

ID Width Length Bearing (true) Bearing (mag) Surface Threshold Offset Overrun Length
08 131 ft / 40 m 4,594 ft / 1,400 m 86.14° 86.34° Asphalt 0 ft / 0 m 492 ft / 150 m
26 131 ft / 40 m 4,594 ft / 1,400 m 266.14° 266.34° Asphalt 0 ft / 0 m 98 ft / 30 m

Map

Weather


0- 5 10 15 20 25 30 35+ Temperature / ° C

Clouds and Precipitation
Forecast for 2018-05-22 06:00 UTC. Updated 2 hours ago

Ground ~20,000 ft ~40,000 ft Winds

METAR

VTSK 220700Z 03006KT 9999 FEW025 SCT030 BKN100 31/24 Q1007

TAF

TAF VTSK 220500Z 2206/2306 03006KT 9999 FEW020

Frequencies

Tower 119.30 MHz TWR
Approach 125.55 MHz APP
Warning: Do not use this data for real-world aviation or navigation. No guarantee of current accuracy is given.